createdAt,value
2023-04-03T00:00:43.902Z,4.03
2023-04-03T00:03:19.234Z,3.58
2023-04-03T00:05:47.440Z,4.18
2023-04-03T00:08:14.621Z,3.53
2023-04-03T00:10:42.150Z,4.30
2023-04-03T00:13:10.021Z,3.78
2023-04-03T00:15:37.966Z,4.05
2023-04-03T00:18:05.769Z,3.70
2023-04-03T00:20:33.125Z,4.93
2023-04-03T00:23:00.873Z,3.38
2023-04-03T00:25:27.681Z,4.13
2023-04-03T00:27:55.122Z,4.28
2023-04-03T00:30:24.196Z,3.85
2023-04-03T00:32:53.208Z,4.20
2023-04-03T00:35:22.520Z,3.95
2023-04-03T00:37:53.714Z,3.67
2023-04-03T00:40:22.170Z,4.18
2023-04-03T00:42:52.653Z,4.03
2023-04-03T00:45:25.741Z,3.55
2023-04-03T00:47:52.963Z,3.42
2023-04-03T00:50:20.379Z,3.97
2023-04-03T00:52:50.035Z,4.13
2023-04-03T00:55:17.513Z,3.67
2023-04-03T00:57:46.839Z,4.00
2023-04-03T01:00:17.178Z,3.67
2023-04-03T01:02:45.904Z,3.85
2023-04-03T01:05:13.949Z,3.60
2023-04-03T01:07:41.254Z,3.83
2023-04-03T01:10:11.691Z,3.30
2023-04-03T01:12:41.310Z,3.72
2023-04-03T01:15:21.722Z,2.90
2023-04-03T01:17:53.715Z,3.03
2023-04-03T01:20:48.095Z,2.85
2023-04-03T01:23:30.212Z,4.03
2023-04-03T01:25:58.598Z,3.13
2023-04-03T01:28:25.707Z,3.08
2023-04-03T01:31:03.806Z,3.17
2023-04-03T01:33:31.203Z,3.42
2023-04-03T01:35:58.357Z,3.03
2023-04-03T01:38:25.450Z,3.30
2023-04-03T01:40:52.242Z,3.42
2023-04-03T01:43:19.481Z,2.42
2023-04-03T01:45:47.525Z,3.25
2023-04-03T01:48:14.723Z,2.55
2023-04-03T01:50:41.480Z,3.20
2023-04-03T01:53:08.950Z,3.03
2023-04-03T01:55:35.880Z,3.58
2023-04-03T01:58:02.943Z,2.88
2023-04-03T02:00:29.834Z,2.58
2023-04-03T02:02:57.827Z,2.60
2023-04-03T02:05:24.786Z,3.25
2023-04-03T02:07:51.874Z,2.65
2023-04-03T02:10:18.646Z,2.78
2023-04-03T02:12:46.277Z,2.40
2023-04-03T02:15:13.043Z,2.35
2023-04-03T02:17:40.138Z,3.33
2023-04-03T02:20:07.643Z,2.45
2023-04-03T02:22:34.852Z,2.33
2023-04-03T02:25:01.996Z,2.17
2023-04-03T02:27:29.061Z,3.05
2023-04-03T02:29:55.811Z,2.90
2023-04-03T02:32:22.910Z,2.78
2023-04-03T02:34:49.778Z,2.70
2023-04-03T02:37:16.890Z,2.88
2023-04-03T02:39:43.710Z,2.40
2023-04-03T02:42:11.433Z,2.28
2023-04-03T02:44:38.260Z,2.45
2023-04-03T02:47:05.599Z,2.88
2023-04-03T02:49:32.775Z,2.60
2023-04-03T02:51:59.958Z,2.90
2023-04-03T02:54:29.657Z,2.45
2023-04-03T02:56:57.026Z,2.33
2023-04-03T02:59:23.858Z,2.40
2023-04-03T03:01:50.969Z,2.30
2023-04-03T03:04:17.737Z,2.58
2023-04-03T03:06:45.087Z,2.70
2023-04-03T03:09:11.923Z,3.15
2023-04-03T03:11:38.978Z,2.47
2023-04-03T03:14:06.297Z,2.40
2023-04-03T03:16:33.387Z,3.05
2023-04-03T03:19:00.693Z,2.90
2023-04-03T03:21:27.854Z,2.30
2023-04-03T03:23:54.633Z,2.53
2023-04-03T03:26:21.936Z,1.67
2023-04-03T03:28:48.684Z,2.58
2023-04-03T03:31:16.327Z,2.67
2023-04-03T03:33:43.196Z,2.92
2023-04-03T03:36:10.614Z,3.00
2023-04-03T03:38:37.846Z,2.50
2023-04-03T03:41:04.936Z,2.75
2023-04-03T03:43:31.679Z,2.42
2023-04-03T03:45:58.847Z,2.42
2023-04-03T03:48:25.805Z,2.67
2023-04-03T03:50:52.914Z,2.78
2023-04-03T03:53:20.340Z,2.92
2023-04-03T03:55:47.376Z,2.72
2023-04-03T03:58:14.123Z,3.03
2023-04-03T04:00:41.481Z,3.30
2023-04-03T04:03:08.289Z,2.97
2023-04-03T04:05:35.739Z,3.13
2023-04-03T04:08:02.814Z,3.35
2023-04-03T04:10:29.877Z,2.92
2023-04-03T04:12:58.501Z,2.78
2023-04-03T04:15:26.784Z,3.15
2023-04-03T04:17:54.452Z,3.70
2023-04-03T04:20:21.863Z,3.67
2023-04-03T04:22:48.647Z,3.40
2023-04-03T04:25:16.189Z,3.25
2023-04-03T04:27:43.157Z,3.72
2023-04-03T04:30:11.793Z,3.28
2023-04-03T04:32:38.695Z,2.55
2023-04-03T04:35:06.677Z,3.58
2023-04-03T04:37:33.630Z,3.92
2023-04-03T04:40:00.933Z,3.63
2023-04-03T04:42:27.815Z,3.80
2023-04-03T04:44:54.867Z,3.15
2023-04-03T04:47:21.716Z,3.13
2023-04-03T04:49:48.805Z,3.08
2023-04-03T04:52:16.090Z,3.83
2023-04-03T04:54:43.163Z,3.17
2023-04-03T04:57:10.055Z,3.17
2023-04-03T04:59:37.148Z,3.42
2023-04-03T05:02:04.045Z,2.92
2023-04-03T05:04:31.362Z,3.88
2023-04-03T05:06:58.112Z,3.88
2023-04-03T05:09:25.190Z,3.65
2023-04-03T05:11:54.440Z,3.58
2023-04-03T05:14:21.582Z,4.05
2023-04-03T05:16:50.298Z,3.70
2023-04-03T05:19:18.544Z,3.75
2023-04-03T05:21:45.359Z,3.95
2023-04-03T05:24:12.474Z,3.45
2023-04-03T05:26:39.624Z,3.53
2023-04-03T05:29:06.838Z,3.15
2023-04-03T05:31:33.602Z,2.95
2023-04-03T05:34:00.739Z,3.60
2023-04-03T05:36:27.717Z,3.10
2023-04-03T05:38:57.513Z,3.15
2023-04-03T05:41:24.824Z,3.45
2023-04-03T05:43:51.946Z,3.38
2023-04-03T05:46:21.652Z,3.38
2023-04-03T05:48:48.856Z,3.13
2023-04-03T05:51:29.181Z,3.65
2023-04-03T05:54:07.384Z,3.60
2023-04-03T05:56:34.194Z,3.60
2023-04-03T05:59:01.320Z,3.20
2023-04-03T06:01:28.108Z,3.13
2023-04-03T06:03:55.741Z,4.00
2023-04-03T06:06:23.180Z,3.72
2023-04-03T06:08:50.394Z,2.88
2023-04-03T06:11:17.556Z,3.53
2023-04-03T06:13:44.673Z,2.90
2023-04-03T06:16:16.483Z,3.72
2023-04-03T06:18:43.602Z,2.65
2023-04-03T06:21:10.421Z,3.22
2023-04-03T06:23:37.694Z,2.80
2023-04-03T06:26:04.475Z,2.88
2023-04-03T06:28:31.542Z,3.30
2023-04-03T06:30:58.306Z,3.03
2023-04-03T06:33:25.475Z,3.47
2023-04-03T06:35:58.938Z,3.40
2023-04-03T06:40:53.164Z,3.17
2023-04-03T06:43:20.544Z,3.20
2023-04-03T06:45:47.806Z,3.35
2023-04-03T06:48:14.991Z,2.95
2023-04-03T06:50:42.245Z,2.70
2023-04-03T06:53:10.088Z,2.40
2023-04-03T06:55:37.888Z,2.30
2023-04-03T06:58:05.501Z,2.42
2023-04-03T07:00:32.337Z,1.73
2023-04-03T07:02:59.558Z,1.92
2023-04-03T07:05:27.111Z,1.58
2023-04-03T07:07:54.532Z,2.03
2023-04-03T07:10:21.537Z,1.83
2023-04-03T07:12:48.686Z,2.08
2023-04-03T07:15:15.754Z,1.40
2023-04-03T07:17:42.962Z,1.83
2023-04-03T07:20:10.520Z,1.92
2023-04-03T07:22:40.653Z,2.38
2023-04-03T07:25:08.276Z,2.00
2023-04-03T07:27:35.573Z,1.67
2023-04-03T07:30:05.026Z,2.10
2023-04-03T07:32:32.126Z,1.58
2023-04-03T07:34:59.002Z,2.35
2023-04-03T07:37:26.227Z,2.30
2023-04-03T07:39:53.213Z,2.05
2023-04-03T07:42:20.518Z,1.70
2023-04-03T07:44:47.459Z,1.58
2023-04-03T07:47:17.275Z,1.38
2023-04-03T07:49:44.749Z,1.23
2023-04-03T07:52:11.826Z,1.10
2023-04-03T07:54:38.717Z,1.42
2023-04-03T07:57:06.160Z,1.10
2023-04-03T07:59:33.001Z,1.50
2023-04-03T08:02:00.182Z,1.38
2023-04-03T08:04:27.292Z,1.67
2023-04-03T08:06:54.444Z,1.73
2023-04-03T08:09:21.338Z,1.77
2023-04-03T08:11:48.609Z,1.67
2023-04-03T08:14:19.556Z,1.88
2023-04-03T08:16:48.770Z,1.52
2023-04-03T08:19:26.294Z,1.50
2023-04-03T08:21:58.606Z,1.55
2023-04-03T08:24:26.322Z,1.45
2023-04-03T08:26:53.373Z,1.70
2023-04-03T08:29:20.466Z,1.77
2023-04-03T08:31:47.828Z,2.03
2023-04-03T08:34:15.788Z,1.40
2023-04-03T08:36:43.576Z,1.60
2023-04-03T08:39:11.147Z,1.05
2023-04-03T08:41:47.957Z,1.10
2023-04-03T08:44:35.726Z,1.42
2023-04-03T08:47:48.361Z,1.20
2023-04-03T08:50:19.493Z,1.55
2023-04-03T08:52:53.656Z,1.30
2023-04-03T08:55:25.570Z,1.70
2023-04-03T08:58:02.156Z,1.20
2023-04-03T09:00:35.629Z,1.67
2023-04-03T09:03:03.100Z,2.00
2023-04-03T09:05:32.972Z,1.00
2023-04-03T09:08:07.804Z,1.67
2023-04-03T09:10:38.752Z,1.08
2023-04-03T09:13:21.057Z,1.10
2023-04-03T09:15:48.216Z,1.20
2023-04-03T09:18:22.025Z,1.20
2023-04-03T09:20:57.921Z,1.40
2023-04-03T09:23:56.863Z,1.40
2023-04-03T09:26:45.950Z,1.33
2023-04-03T09:29:19.750Z,1.23
2023-04-03T09:31:49.381Z,1.75
2023-04-03T09:34:25.363Z,1.27
2023-04-03T09:36:54.868Z,1.30
2023-04-03T09:39:25.240Z,0.80
2023-04-03T09:42:20.275Z,1.13
2023-04-03T09:44:57.456Z,1.20
2023-04-03T09:47:30.382Z,1.17
2023-04-03T09:50:15.649Z,0.90
2023-04-03T09:52:44.986Z,1.20
2023-04-03T09:55:22.736Z,1.40
2023-04-03T09:57:52.384Z,0.95
2023-04-03T10:00:29.198Z,0.90
2023-04-03T10:02:57.321Z,0.70
2023-04-03T10:05:41.070Z,1.10
2023-04-03T10:08:13.983Z,0.73
2023-04-03T10:10:49.009Z,1.48
2023-04-03T10:13:22.335Z,0.80
2023-04-03T10:15:57.288Z,0.75
2023-04-03T10:18:35.772Z,1.02
2023-04-03T10:21:30.393Z,1.25
2023-04-03T10:26:51.124Z,1.00
2023-04-03T10:29:52.162Z,0.70
2023-04-03T10:32:40.374Z,1.20
2023-04-03T10:35:14.061Z,0.80
2023-04-03T10:37:54.780Z,0.93
2023-04-03T10:40:41.946Z,0.73
2023-04-03T10:43:17.848Z,0.63
2023-04-03T10:46:22.122Z,0.60
2023-04-03T10:51:45.082Z,0.80
2023-04-03T10:54:25.441Z,0.70
2023-04-03T10:57:01.338Z,0.75
2023-04-03T10:59:56.447Z,0.60
2023-04-03T11:02:32.690Z,0.70
2023-04-03T11:05:10.787Z,0.57
2023-04-03T11:07:47.811Z,0.40
2023-04-03T11:10:41.520Z,0.80
2023-04-03T11:13:24.064Z,0.67
2023-04-03T11:15:53.929Z,0.77
2023-04-03T11:18:27.901Z,0.75
2023-04-03T11:21:05.015Z,0.93
2023-04-03T11:23:48.789Z,0.88
2023-04-03T11:26:20.041Z,0.70
2023-04-03T11:28:47.358Z,0.60
2023-04-03T11:31:28.783Z,0.50
2023-04-03T11:34:20.258Z,0.60
2023-04-03T11:36:51.332Z,0.82
2023-04-03T11:39:29.605Z,0.73
2023-04-03T11:42:06.925Z,0.77
2023-04-03T11:44:40.028Z,0.80
2023-04-03T11:47:09.854Z,0.70
2023-04-03T11:50:03.674Z,0.68
2023-04-03T11:52:42.250Z,1.02
2023-04-03T11:55:22.377Z,0.73
2023-04-03T11:57:58.832Z,0.95
2023-04-03T12:00:44.457Z,0.70
2023-04-03T12:03:27.556Z,0.80
2023-04-03T12:06:15.417Z,1.00
2023-04-03T12:08:46.189Z,0.80
2023-04-03T12:11:13.042Z,0.65
2023-04-03T12:14:05.500Z,0.50
2023-04-03T12:16:45.828Z,0.70
2023-04-03T12:19:15.888Z,0.65
2023-04-03T12:21:57.865Z,0.93
2023-04-03T12:24:29.369Z,0.60
2023-04-03T12:27:02.713Z,0.80
2023-04-03T12:29:33.383Z,0.50
2023-04-03T12:32:37.643Z,0.55
2023-04-03T12:38:02.054Z,0.70
2023-04-03T12:40:44.068Z,0.60
2023-04-03T12:43:49.364Z,0.70
2023-04-03T12:46:20.042Z,0.57
2023-04-03T12:48:49.814Z,0.60
2023-04-03T12:51:21.773Z,0.95
2023-04-03T12:53:52.586Z,2.15
2023-04-03T12:56:27.428Z,0.50
2023-04-03T12:58:58.289Z,0.60
2023-04-03T13:01:26.809Z,1.02
2023-04-03T13:03:56.727Z,0.90
2023-04-03T13:06:28.412Z,0.88
2023-04-03T13:08:58.195Z,0.80
2023-04-03T13:11:28.074Z,0.55
2023-04-03T13:14:21.063Z,0.50
2023-04-03T13:17:16.488Z,0.63
2023-04-03T13:19:48.849Z,0.50
2023-04-03T13:22:40.042Z,0.57
2023-04-03T13:25:11.929Z,0.65
2023-04-03T13:27:40.456Z,0.68
2023-04-03T13:30:19.756Z,0.55
2023-04-03T13:32:46.869Z,0.57
2023-04-03T13:35:35.259Z,0.82
2023-04-03T13:38:27.033Z,0.70
2023-04-03T13:40:57.214Z,0.90
2023-04-03T13:43:36.464Z,0.60
2023-04-03T13:46:06.536Z,0.50
2023-04-03T13:48:43.503Z,0.50
2023-04-03T13:51:13.195Z,0.80
2023-04-03T13:53:51.116Z,0.65
2023-04-03T13:56:30.772Z,0.43
2023-04-03T13:59:20.887Z,0.68
2023-04-03T14:02:07.843Z,0.80
2023-04-03T14:04:50.344Z,0.40
2023-04-03T14:07:19.148Z,1.13
2023-04-03T14:09:46.213Z,0.73
2023-04-03T14:12:38.306Z,0.73
2023-04-03T14:15:27.344Z,0.73
2023-04-03T14:17:54.376Z,0.75
2023-04-03T14:20:24.768Z,0.65
2023-04-03T14:22:52.320Z,0.57
2023-04-03T14:25:20.822Z,0.77
2023-04-03T14:27:50.746Z,0.80
2023-04-03T14:30:27.350Z,0.80
2023-04-03T14:32:54.806Z,0.60
2023-04-03T14:35:22.308Z,0.60
2023-04-03T14:37:49.906Z,1.30
2023-04-03T14:40:21.799Z,0.60
2023-04-03T14:42:49.840Z,0.70
2023-04-03T14:45:18.057Z,0.70
2023-04-03T14:47:53.384Z,0.80
2023-04-03T14:50:24.370Z,0.82
2023-04-03T14:52:54.684Z,0.60
2023-04-03T14:55:24.041Z,0.82
2023-04-03T14:57:50.933Z,0.82
2023-04-03T15:00:21.495Z,0.70
2023-04-03T15:02:49.615Z,1.00
2023-04-03T15:05:16.905Z,1.40
2023-04-03T15:07:54.883Z,0.93
2023-04-03T15:10:27.671Z,0.60
2023-04-03T15:12:55.310Z,0.90
2023-04-03T15:15:24.336Z,0.70
2023-04-03T15:17:59.178Z,0.82
2023-04-03T15:20:34.194Z,0.90
2023-04-03T15:23:02.238Z,0.80
2023-04-03T15:25:33.424Z,0.68
2023-04-03T15:28:00.906Z,0.80
2023-04-03T15:30:27.986Z,0.90
2023-04-03T15:32:54.889Z,0.82
2023-04-03T15:35:22.208Z,0.73
2023-04-03T15:37:49.276Z,1.33
2023-04-03T15:40:16.712Z,1.02
2023-04-03T15:42:43.555Z,1.00
2023-04-03T15:45:10.906Z,1.58
2023-04-03T15:47:37.915Z,1.52
2023-04-03T15:50:07.798Z,1.40
2023-04-03T15:52:36.301Z,1.20
2023-04-03T15:55:04.281Z,1.67
2023-04-03T16:00:04.175Z,1.50
2023-04-03T16:02:31.185Z,1.92
2023-04-03T16:04:58.538Z,2.00
2023-04-03T16:07:25.295Z,1.30
2023-04-03T16:09:53.075Z,1.10
2023-04-03T16:12:19.988Z,1.20
2023-04-03T16:14:47.154Z,0.77
2023-04-03T16:17:14.094Z,0.80
2023-04-03T16:19:41.181Z,0.82
2023-04-03T16:22:08.392Z,0.90
2023-04-03T16:24:36.647Z,0.55
2023-04-03T16:27:03.503Z,1.02
2023-04-03T16:29:30.770Z,1.00
2023-04-03T16:31:59.287Z,1.02
2023-04-03T16:34:27.510Z,1.00
2023-04-03T16:36:54.412Z,0.80
2023-04-03T16:39:21.437Z,1.10
2023-04-03T16:41:48.291Z,0.90
2023-04-03T16:44:15.413Z,1.13
2023-04-03T16:46:42.221Z,0.93
2023-04-03T16:49:09.400Z,0.88
2023-04-03T16:51:36.254Z,1.00
2023-04-03T16:54:03.416Z,1.10
2023-04-03T16:56:30.386Z,0.90
2023-04-03T16:58:57.519Z,1.25
2023-04-03T17:01:24.443Z,1.33
2023-04-03T17:03:51.592Z,1.50
2023-04-03T17:06:21.240Z,1.38
2023-04-03T17:08:50.142Z,1.55
2023-04-03T17:11:18.227Z,1.08
2023-04-03T17:13:45.585Z,1.63
2023-04-03T17:16:15.759Z,1.13
2023-04-03T17:18:44.105Z,1.00
2023-04-03T17:21:12.321Z,1.50
2023-04-03T17:23:42.185Z,1.17
2023-04-03T17:26:09.771Z,1.10
2023-04-03T17:28:37.039Z,1.20
2023-04-03T17:31:03.953Z,1.00
2023-04-03T17:33:31.275Z,1.17
2023-04-03T17:35:59.446Z,1.30
2023-04-03T17:38:27.108Z,1.05
2023-04-03T17:40:58.091Z,1.30
2023-04-03T17:43:25.779Z,1.52
2023-04-03T17:45:52.779Z,1.80
2023-04-03T17:48:21.328Z,2.13
2023-04-03T17:50:48.118Z,1.23
2023-04-03T17:53:15.374Z,1.40
2023-04-03T17:55:42.228Z,1.20
2023-04-03T17:58:09.382Z,1.40
2023-04-03T18:00:37.239Z,1.15
2023-04-03T18:03:04.796Z,1.42
2023-04-03T18:05:31.853Z,1.25
2023-04-03T18:08:00.853Z,1.00
2023-04-03T18:10:30.546Z,1.20
2023-04-03T18:12:57.775Z,1.30
2023-04-03T18:15:25.908Z,1.85
2023-04-03T18:17:56.736Z,1.98
2023-04-03T18:20:24.323Z,1.13
2023-04-03T18:22:52.605Z,1.48
2023-04-03T18:25:19.834Z,1.88
2023-04-03T18:27:48.290Z,1.50
2023-04-03T18:30:17.601Z,1.40
2023-04-03T18:32:44.847Z,1.50
2023-04-03T18:35:11.894Z,1.00
2023-04-03T18:37:38.983Z,1.40
2023-04-03T18:40:06.481Z,1.35
2023-04-03T18:42:33.658Z,1.40
2023-04-03T18:45:02.202Z,1.83
2023-04-03T18:47:29.635Z,1.35
2023-04-03T18:49:56.929Z,1.30
2023-04-03T18:52:25.479Z,1.67
2023-04-03T18:54:52.385Z,1.33
2023-04-03T18:57:19.516Z,1.17
2023-04-03T18:59:46.326Z,1.20
2023-04-03T19:02:14.217Z,1.02
2023-04-03T19:04:41.355Z,1.25
2023-04-03T19:07:10.372Z,1.33
2023-04-03T19:09:38.675Z,1.80
2023-04-03T19:12:07.377Z,1.35
2023-04-03T19:14:34.383Z,1.50
2023-04-03T19:17:02.972Z,1.85
2023-04-03T19:19:31.207Z,1.80
2023-04-03T19:21:58.233Z,1.73
2023-04-03T19:24:26.074Z,1.60
2023-04-03T19:26:53.353Z,1.45
2023-04-03T19:29:20.152Z,1.80
2023-04-03T19:31:47.269Z,1.48
2023-04-03T19:34:14.135Z,1.20
2023-04-03T19:36:42.390Z,2.38
2023-04-03T19:39:09.224Z,1.52
2023-04-03T19:41:37.761Z,1.00
2023-04-03T19:44:08.440Z,1.50
2023-04-03T19:46:36.355Z,1.48
2023-04-03T19:49:03.868Z,1.83
2023-04-03T19:51:30.997Z,1.52
2023-04-03T19:53:57.819Z,1.50
2023-04-03T19:56:26.449Z,1.30
2023-04-03T19:58:56.855Z,1.20
2023-04-03T20:01:24.734Z,1.45
2023-04-03T20:03:51.894Z,1.23
2023-04-03T20:06:19.370Z,1.17
2023-04-03T20:08:46.371Z,2.05
2023-04-03T20:11:13.616Z,1.33
2023-04-03T20:13:40.522Z,1.38
2023-04-03T20:16:08.703Z,1.30
2023-04-03T20:18:36.027Z,1.48
2023-04-03T20:21:05.733Z,1.55
2023-04-03T20:23:33.294Z,1.27
2023-04-03T20:26:09.525Z,1.38
2023-04-03T20:28:38.517Z,1.75
2023-04-03T20:31:09.245Z,1.70
2023-04-03T20:33:37.225Z,1.20
2023-04-03T20:36:04.452Z,1.50
2023-04-03T20:38:31.256Z,1.38
2023-04-03T20:40:58.440Z,1.20
2023-04-03T20:43:25.411Z,0.82
2023-04-03T20:45:52.643Z,1.50
2023-04-03T20:48:19.765Z,1.40
2023-04-03T20:50:47.545Z,1.80
2023-04-03T20:53:17.963Z,1.30
2023-04-03T20:56:01.689Z,1.33
2023-04-03T20:58:35.500Z,1.20
2023-04-03T21:01:02.667Z,1.48
2023-04-03T21:03:32.661Z,1.00
2023-04-03T21:06:03.922Z,1.30
2023-04-03T21:09:08.533Z,1.10
2023-04-03T21:12:13.043Z,1.30
2023-04-03T21:15:17.536Z,1.95
